sensor_id;sensor_type;location;lat;lon;timestamp;P1;durP1;ratioP1;P2;durP2;ratioP2
2055;SDS011;1033;52.560;13.374;2023-08-06T00:02:01;16.20;;;14.70;;
2055;SDS011;1033;52.560;13.374;2023-08-06T00:04:30;14.63;;;13.23;;
2055;SDS011;1033;52.560;13.374;2023-08-06T00:07:00;12.93;;;11.70;;
2055;SDS011;1033;52.560;13.374;2023-08-06T00:09:29;12.63;;;11.43;;
2055;SDS011;1033;52.560;13.374;2023-08-06T00:11:58;18.30;;;13.70;;
2055;SDS011;1033;52.560;13.374;2023-08-06T00:14:29;14.30;;;13.07;;
2055;SDS011;1033;52.560;13.374;2023-08-06T00:16:59;13.17;;;12.07;;
2055;SDS011;1033;52.560;13.374;2023-08-06T00:19:28;13.60;;;12.40;;
2055;SDS011;1033;52.560;13.374;2023-08-06T00:21:57;14.40;;;13.10;;
2055;SDS011;1033;52.560;13.374;2023-08-06T00:24:28;13.87;;;12.30;;
2055;SDS011;1033;52.560;13.374;2023-08-06T00:26:57;12.73;;;11.63;;
2055;SDS011;1033;52.560;13.374;2023-08-06T00:29:26;12.30;;;11.23;;
2055;SDS011;1033;52.560;13.374;2023-08-06T00:31:57;12.57;;;11.37;;
2055;SDS011;1033;52.560;13.374;2023-08-06T00:34:26;15.80;;;14.30;;
2055;SDS011;1033;52.560;13.374;2023-08-06T00:36:55;16.90;;;13.83;;
2055;SDS011;1033;52.560;13.374;2023-08-06T00:39:24;14.70;;;13.47;;
2055;SDS011;1033;52.560;13.374;2023-08-06T00:41:53;12.90;;;11.77;;
2055;SDS011;1033;52.560;13.374;2023-08-06T00:44:23;16.33;;;13.00;;
2055;SDS011;1033;52.560;13.374;2023-08-06T00:46:52;14.70;;;13.40;;
2055;SDS011;1033;52.560;13.374;2023-08-06T00:49:23;13.73;;;12.50;;
2055;SDS011;1033;52.560;13.374;2023-08-06T00:51:52;14.10;;;12.90;;
2055;SDS011;1033;52.560;13.374;2023-08-06T00:54:22;13.00;;;11.87;;
2055;SDS011;1033;52.560;13.374;2023-08-06T00:56:54;18.23;;;14.50;;
2055;SDS011;1033;52.560;13.374;2023-08-06T00:59:24;14.27;;;13.00;;
2055;SDS011;1033;52.560;13.374;2023-08-06T01:01:53;13.40;;;12.40;;
2055;SDS011;1033;52.560;13.374;2023-08-06T01:04:24;14.27;;;13.10;;
2055;SDS011;1033;52.560;13.374;2023-08-06T01:06:56;14.53;;;13.33;;
2055;SDS011;1033;52.560;13.374;2023-08-06T01:09:39;14.87;;;13.50;;
2055;SDS011;1033;52.560;13.374;2023-08-06T01:12:18;15.90;;;14.40;;
2055;SDS011;1033;52.560;13.374;2023-08-06T01:14:57;14.90;;;13.47;;
2055;SDS011;1033;52.560;13.374;2023-08-06T01:17:32;15.57;;;14.20;;
2055;SDS011;1033;52.560;13.374;2023-08-06T01:20:04;13.30;;;12.03;;
2055;SDS011;1033;52.560;13.374;2023-08-06T01:22:35;13.67;;;12.00;;
2055;SDS011;1033;52.560;13.374;2023-08-06T01:25:05;13.27;;;11.97;;
2055;SDS011;1033;52.560;13.374;2023-08-06T01:27:37;11.37;;;10.47;;
2055;SDS011;1033;52.560;13.374;2023-08-06T01:30:13;13.03;;;11.93;;
2055;SDS011;1033;52.560;13.374;2023-08-06T01:32:46;13.30;;;12.07;;
2055;SDS011;1033;52.560;13.374;2023-08-06T01:35:18;14.73;;;13.30;;
2055;SDS011;1033;52.560;13.374;2023-08-06T01:37:51;15.60;;;14.07;;
2055;SDS011;1033;52.560;13.374;2023-08-06T01:40:22;14.00;;;12.80;;
2055;SDS011;1033;52.560;13.374;2023-08-06T01:42:53;13.90;;;12.60;;
2055;SDS011;1033;52.560;13.374;2023-08-06T01:45:23;13.57;;;12.43;;
2055;SDS011;1033;52.560;13.374;2023-08-06T01:47:52;12.77;;;11.57;;
2055;SDS011;1033;52.560;13.374;2023-08-06T01:50:22;16.50;;;12.50;;
2055;SDS011;1033;52.560;13.374;2023-08-06T01:52:53;13.57;;;12.37;;
2055;SDS011;1033;52.560;13.374;2023-08-06T01:55:22;13.60;;;12.40;;
2055;SDS011;1033;52.560;13.374;2023-08-06T01:57:51;14.27;;;12.03;;
2055;SDS011;1033;52.560;13.374;2023-08-06T02:00:21;13.70;;;12.50;;
2055;SDS011;1033;52.560;13.374;2023-08-06T02:02:51;13.67;;;12.40;;
2055;SDS011;1033;52.560;13.374;2023-08-06T02:05:21;15.37;;;13.97;;
2055;SDS011;1033;52.560;13.374;2023-08-06T02:07:50;13.40;;;12.27;;
2055;SDS011;1033;52.560;13.374;2023-08-06T02:10:21;13.10;;;12.00;;
2055;SDS011;1033;52.560;13.374;2023-08-06T02:12:50;15.17;;;13.30;;
2055;SDS011;1033;52.560;13.374;2023-08-06T02:15:19;13.37;;;12.10;;
2055;SDS011;1033;52.560;13.374;2023-08-06T02:17:48;14.80;;;13.30;;
2055;SDS011;1033;52.560;13.374;2023-08-06T02:20:18;14.50;;;12.50;;
2055;SDS011;1033;52.560;13.374;2023-08-06T02:22:47;13.33;;;12.10;;
2055;SDS011;1033;52.560;13.374;2023-08-06T02:25:18;13.80;;;12.60;;
2055;SDS011;1033;52.560;13.374;2023-08-06T02:27:47;13.67;;;12.37;;
2055;SDS011;1033;52.560;13.374;2023-08-06T02:30:17;14.07;;;12.90;;
2055;SDS011;1033;52.560;13.374;2023-08-06T02:32:46;13.80;;;12.60;;
2055;SDS011;1033;52.560;13.374;2023-08-06T02:35:16;15.07;;;13.77;;
2055;SDS011;1033;52.560;13.374;2023-08-06T02:37:45;14.33;;;13.07;;
2055;SDS011;1033;52.560;13.374;2023-08-06T02:40:14;13.57;;;12.37;;
2055;SDS011;1033;52.560;13.374;2023-08-06T02:42:45;13.83;;;12.60;;
2055;SDS011;1033;52.560;13.374;2023-08-06T02:45:15;14.93;;;13.53;;
2055;SDS011;1033;52.560;13.374;2023-08-06T02:47:44;14.53;;;13.23;;
2055;SDS011;1033;52.560;13.374;2023-08-06T02:50:16;13.53;;;12.20;;
2055;SDS011;1033;52.560;13.374;2023-08-06T02:52:45;12.20;;;11.20;;
2055;SDS011;1033;52.560;13.374;2023-08-06T02:55:14;13.90;;;12.60;;
2055;SDS011;1033;52.560;13.374;2023-08-06T02:57:48;14.10;;;12.80;;
2055;SDS011;1033;52.560;13.374;2023-08-06T03:00:17;13.77;;;12.50;;
2055;SDS011;1033;52.560;13.374;2023-08-06T03:02:46;16.30;;;13.03;;
2055;SDS011;1033;52.560;13.374;2023-08-06T03:05:50;14.90;;;13.50;;
2055;SDS011;1033;52.560;13.374;2023-08-06T03:08:30;14.80;;;13.20;;
2055;SDS011;1033;52.560;13.374;2023-08-06T03:11:00;16.10;;;14.60;;
2055;SDS011;1033;52.560;13.374;2023-08-06T03:13:30;15.47;;;14.03;;
2055;SDS011;1033;52.560;13.374;2023-08-06T03:16:01;18.57;;;16.73;;
2055;SDS011;1033;52.560;13.374;2023-08-06T03:18:30;16.67;;;15.17;;
2055;SDS011;1033;52.560;13.374;2023-08-06T03:21:03;14.80;;;13.53;;
2055;SDS011;1033;52.560;13.374;2023-08-06T03:23:32;18.47;;;14.77;;
2055;SDS011;1033;52.560;13.374;2023-08-06T03:26:02;17.00;;;15.30;;
2055;SDS011;1033;52.560;13.374;2023-08-06T03:28:33;14.73;;;13.33;;
2055;SDS011;1033;52.560;13.374;2023-08-06T03:31:04;15.00;;;13.70;;
2055;SDS011;1033;52.560;13.374;2023-08-06T03:33:40;16.43;;;14.73;;
2055;SDS011;1033;52.560;13.374;2023-08-06T03:36:14;14.37;;;13.00;;
2055;SDS011;1033;52.560;13.374;2023-08-06T03:38:44;13.70;;;12.57;;
2055;SDS011;1033;52.560;13.374;2023-08-06T03:41:14;14.47;;;13.07;;
2055;SDS011;1033;52.560;13.374;2023-08-06T03:43:46;16.50;;;14.70;;
2055;SDS011;1033;52.560;13.374;2023-08-06T03:46:21;14.20;;;13.00;;
2055;SDS011;1033;52.560;13.374;2023-08-06T03:48:53;14.20;;;13.10;;
2055;SDS011;1033;52.560;13.374;2023-08-06T03:51:24;12.80;;;11.60;;
2055;SDS011;1033;52.560;13.374;2023-08-06T03:53:55;16.13;;;14.60;;
2055;SDS011;1033;52.560;13.374;2023-08-06T03:56:24;13.70;;;12.40;;
2055;SDS011;1033;52.560;13.374;2023-08-06T03:58:55;14.10;;;12.90;;
2055;SDS011;1033;52.560;13.374;2023-08-06T04:01:25;13.37;;;12.20;;
2055;SDS011;1033;52.560;13.374;2023-08-06T04:03:54;15.40;;;14.00;;
2055;SDS011;1033;52.560;13.374;2023-08-06T04:06:23;14.13;;;12.83;;
2055;SDS011;1033;52.560;13.374;2023-08-06T04:08:52;16.33;;;14.80;;
2055;SDS011;1033;52.560;13.374;2023-08-06T04:11:22;14.60;;;13.30;;
2055;SDS011;1033;52.560;13.374;2023-08-06T04:13:51;12.50;;;11.40;;
2055;SDS011;1033;52.560;13.374;2023-08-06T04:16:25;15.17;;;13.60;;
2055;SDS011;1033;52.560;13.374;2023-08-06T04:19:56;12.50;;;11.30;;
2055;SDS011;1033;52.560;13.374;2023-08-06T04:22:26;12.53;;;11.23;;
2055;SDS011;1033;52.560;13.374;2023-08-06T04:24:55;15.60;;;12.27;;
2055;SDS011;1033;52.560;13.374;2023-08-06T04:27:25;14.70;;;13.20;;
2055;SDS011;1033;52.560;13.374;2023-08-06T04:29:54;12.97;;;11.67;;
2055;SDS011;1033;52.560;13.374;2023-08-06T04:32:26;14.20;;;12.57;;
2055;SDS011;1033;52.560;13.374;2023-08-06T04:34:56;13.97;;;12.63;;
2055;SDS011;1033;52.560;13.374;2023-08-06T04:37:25;11.90;;;10.80;;
2055;SDS011;1033;52.560;13.374;2023-08-06T04:39:55;13.93;;;12.30;;
2055;SDS011;1033;52.560;13.374;2023-08-06T04:42:24;12.40;;;11.10;;
2055;SDS011;1033;52.560;13.374;2023-08-06T04:44:54;14.40;;;13.00;;
2055;SDS011;1033;52.560;13.374;2023-08-06T04:47:23;14.00;;;12.70;;
2055;SDS011;1033;52.560;13.374;2023-08-06T04:54:06;12.10;;;11.10;;
2055;SDS011;1033;52.560;13.374;2023-08-06T04:56:35;13.40;;;12.20;;
2055;SDS011;1033;52.560;13.374;2023-08-06T04:59:05;14.67;;;13.37;;
2055;SDS011;1033;52.560;13.374;2023-08-06T05:01:34;11.97;;;10.93;;
2055;SDS011;1033;52.560;13.374;2023-08-06T05:04:05;11.60;;;10.50;;
2055;SDS011;1033;52.560;13.374;2023-08-06T05:06:34;10.80;;;9.80;;
2055;SDS011;1033;52.560;13.374;2023-08-06T05:09:04;10.87;;;9.87;;
2055;SDS011;1033;52.560;13.374;2023-08-06T05:11:33;10.97;;;10.00;;
2055;SDS011;1033;52.560;13.374;2023-08-06T05:14:03;12.17;;;10.57;;
2055;SDS011;1033;52.560;13.374;2023-08-06T05:16:32;10.27;;;8.97;;
2055;SDS011;1033;52.560;13.374;2023-08-06T05:19:02;11.70;;;10.70;;
2055;SDS011;1033;52.560;13.374;2023-08-06T05:21:32;12.27;;;11.13;;
2055;SDS011;1033;52.560;13.374;2023-08-06T05:24:01;13.67;;;12.00;;
2055;SDS011;1033;52.560;13.374;2023-08-06T05:26:30;11.93;;;10.83;;
2055;SDS011;1033;52.560;13.374;2023-08-06T05:29:00;11.50;;;10.40;;
2055;SDS011;1033;52.560;13.374;2023-08-06T05:31:29;11.43;;;10.33;;
2055;SDS011;1033;52.560;13.374;2023-08-06T05:33:59;11.00;;;10.10;;
2055;SDS011;1033;52.560;13.374;2023-08-06T05:36:30;11.50;;;10.37;;
2055;SDS011;1033;52.560;13.374;2023-08-06T05:38:59;11.23;;;9.90;;
2055;SDS011;1033;52.560;13.374;2023-08-06T05:41:28;11.63;;;10.53;;
2055;SDS011;1033;52.560;13.374;2023-08-06T05:43:57;10.60;;;9.63;;
2055;SDS011;1033;52.560;13.374;2023-08-06T05:46:31;10.10;;;9.20;;
2055;SDS011;1033;52.560;13.374;2023-08-06T05:49:00;10.50;;;9.60;;
2055;SDS011;1033;52.560;13.374;2023-08-06T05:51:31;9.43;;;8.63;;
2055;SDS011;1033;52.560;13.374;2023-08-06T05:54:00;10.63;;;9.70;;
2055;SDS011;1033;52.560;13.374;2023-08-06T05:56:30;10.23;;;9.33;;
2055;SDS011;1033;52.560;13.374;2023-08-06T05:58:59;10.37;;;9.27;;
2055;SDS011;1033;52.560;13.374;2023-08-06T06:01:30;10.93;;;9.90;;
2055;SDS011;1033;52.560;13.374;2023-08-06T06:04:02;10.93;;;9.93;;
2055;SDS011;1033;52.560;13.374;2023-08-06T06:06:34;12.20;;;11.10;;
2055;SDS011;1033;52.560;13.374;2023-08-06T06:09:04;11.90;;;10.80;;
2055;SDS011;1033;52.560;13.374;2023-08-06T06:11:35;12.10;;;10.90;;
2055;SDS011;1033;52.560;13.374;2023-08-06T06:14:04;12.47;;;11.27;;
2055;SDS011;1033;52.560;13.374;2023-08-06T06:16:34;12.07;;;11.07;;
2055;SDS011;1033;52.560;13.374;2023-08-06T06:19:03;13.63;;;10.93;;
2055;SDS011;1033;52.560;13.374;2023-08-06T06:21:34;11.40;;;10.20;;
2055;SDS011;1033;52.560;13.374;2023-08-06T06:24:04;11.50;;;10.60;;
2055;SDS011;1033;52.560;13.374;2023-08-06T06:26:34;12.30;;;11.17;;
2055;SDS011;1033;52.560;13.374;2023-08-06T06:29:03;11.30;;;10.10;;
2055;SDS011;1033;52.560;13.374;2023-08-06T06:31:34;12.90;;;11.83;;
2055;SDS011;1033;52.560;13.374;2023-08-06T06:34:03;12.27;;;10.63;;
2055;SDS011;1033;52.560;13.374;2023-08-06T06:39:34;11.43;;;10.20;;
2055;SDS011;1033;52.560;13.374;2023-08-06T06:42:59;12.73;;;11.43;;
2055;SDS011;1033;52.560;13.374;2023-08-06T06:49:17;13.60;;;12.43;;
2055;SDS011;1033;52.560;13.374;2023-08-06T06:51:46;12.77;;;11.47;;
2055;SDS011;1033;52.560;13.374;2023-08-06T06:54:17;13.50;;;12.20;;
2055;SDS011;1033;52.560;13.374;2023-08-06T06:56:46;14.23;;;12.77;;
2055;SDS011;1033;52.560;13.374;2023-08-06T06:59:15;13.37;;;12.07;;
2055;SDS011;1033;52.560;13.374;2023-08-06T07:01:44;12.57;;;11.47;;
2055;SDS011;1033;52.560;13.374;2023-08-06T07:04:13;13.50;;;12.40;;
2055;SDS011;1033;52.560;13.374;2023-08-06T07:06:42;12.23;;;11.23;;
2055;SDS011;1033;52.560;13.374;2023-08-06T07:09:11;13.80;;;12.50;;
2055;SDS011;1033;52.560;13.374;2023-08-06T07:11:42;12.33;;;11.27;;
2055;SDS011;1033;52.560;13.374;2023-08-06T07:14:11;14.63;;;13.10;;
2055;SDS011;1033;52.560;13.374;2023-08-06T07:16:41;12.63;;;11.33;;
2055;SDS011;1033;52.560;13.374;2023-08-06T07:19:10;11.03;;;10.10;;
2055;SDS011;1033;52.560;13.374;2023-08-06T07:21:39;11.37;;;10.47;;
2055;SDS011;1033;52.560;13.374;2023-08-06T07:24:10;12.00;;;11.00;;
2055;SDS011;1033;52.560;13.374;2023-08-06T07:26:39;11.90;;;10.83;;
2055;SDS011;1033;52.560;13.374;2023-08-06T07:29:12;10.30;;;9.50;;
2055;SDS011;1033;52.560;13.374;2023-08-06T07:31:46;13.17;;;12.07;;
2055;SDS011;1033;52.560;13.374;2023-08-06T07:34:17;12.50;;;11.30;;
2055;SDS011;1033;52.560;13.374;2023-08-06T07:36:47;13.30;;;12.20;;
2055;SDS011;1033;52.560;13.374;2023-08-06T07:39:16;14.13;;;12.90;;
2055;SDS011;1033;52.560;13.374;2023-08-06T07:41:46;11.97;;;10.97;;
2055;SDS011;1033;52.560;13.374;2023-08-06T07:44:16;14.43;;;13.23;;
2055;SDS011;1033;52.560;13.374;2023-08-06T07:46:45;13.20;;;12.10;;
2055;SDS011;1033;52.560;13.374;2023-08-06T07:49:14;13.30;;;12.10;;
2055;SDS011;1033;52.560;13.374;2023-08-06T07:51:43;14.00;;;12.90;;
2055;SDS011;1033;52.560;13.374;2023-08-06T07:54:13;12.77;;;11.67;;
2055;SDS011;1033;52.560;13.374;2023-08-06T07:56:42;14.23;;;13.03;;
2055;SDS011;1033;52.560;13.374;2023-08-06T07:59:12;13.27;;;12.17;;
2055;SDS011;1033;52.560;13.374;2023-08-06T08:01:41;14.37;;;12.97;;
2055;SDS011;1033;52.560;13.374;2023-08-06T08:04:10;12.70;;;11.60;;
2055;SDS011;1033;52.560;13.374;2023-08-06T08:06:39;11.40;;;10.40;;
2055;SDS011;1033;52.560;13.374;2023-08-06T08:09:09;11.43;;;10.43;;
2055;SDS011;1033;52.560;13.374;2023-08-06T08:11:40;12.13;;;11.13;;
2055;SDS011;1033;52.560;13.374;2023-08-06T08:14:09;12.70;;;11.50;;
2055;SDS011;1033;52.560;13.374;2023-08-06T08:16:40;13.97;;;12.77;;
2055;SDS011;1033;52.560;13.374;2023-08-06T08:19:12;12.93;;;11.83;;
2055;SDS011;1033;52.560;13.374;2023-08-06T08:21:41;14.67;;;13.27;;
2055;SDS011;1033;52.560;13.374;2023-08-06T08:24:10;13.33;;;12.23;;
2055;SDS011;1033;52.560;13.374;2023-08-06T08:26:40;13.47;;;12.37;;
2055;SDS011;1033;52.560;13.374;2023-08-06T08:29:09;13.40;;;12.27;;
2055;SDS011;1033;52.560;13.374;2023-08-06T08:31:39;14.60;;;13.30;;
2055;SDS011;1033;52.560;13.374;2023-08-06T08:34:10;14.90;;;13.60;;
2055;SDS011;1033;52.560;13.374;2023-08-06T08:36:39;18.67;;;16.60;;
2055;SDS011;1033;52.560;13.374;2023-08-06T08:39:08;14.90;;;13.40;;
2055;SDS011;1033;52.560;13.374;2023-08-06T08:41:38;16.10;;;14.50;;
2055;SDS011;1033;52.560;13.374;2023-08-06T08:44:08;15.33;;;13.80;;
2055;SDS011;1033;52.560;13.374;2023-08-06T09:45:40;18.50;;;16.80;;
2055;SDS011;1033;52.560;13.374;2023-08-06T09:48:10;16.37;;;15.00;;
2055;SDS011;1033;52.560;13.374;2023-08-06T09:50:39;17.40;;;15.87;;
2055;SDS011;1033;52.560;13.374;2023-08-06T09:53:09;18.47;;;16.87;;
2055;SDS011;1033;52.560;13.374;2023-08-06T09:55:42;20.20;;;18.40;;
2055;SDS011;1033;52.560;13.374;2023-08-06T09:58:13;14.77;;;13.50;;
2055;SDS011;1033;52.560;13.374;2023-08-06T10:00:54;10.97;;;10.17;;
2055;SDS011;1033;52.560;13.374;2023-08-06T10:03:27;14.60;;;13.30;;
2055;SDS011;1033;52.560;13.374;2023-08-06T10:05:57;16.57;;;14.97;;
2055;SDS011;1033;52.560;13.374;2023-08-06T10:08:32;14.20;;;12.90;;
2055;SDS011;1033;52.560;13.374;2023-08-06T10:11:02;16.17;;;14.63;;
2055;SDS011;1033;52.560;13.374;2023-08-06T10:13:32;16.90;;;15.30;;
2055;SDS011;1033;52.560;13.374;2023-08-06T10:16:04;15.73;;;14.43;;
2055;SDS011;1033;52.560;13.374;2023-08-06T10:18:34;14.47;;;13.20;;
2055;SDS011;1033;52.560;13.374;2023-08-06T10:21:09;16.40;;;14.77;;
2055;SDS011;1033;52.560;13.374;2023-08-06T10:23:48;17.27;;;15.70;;
2055;SDS011;1033;52.560;13.374;2023-08-06T10:26:24;16.00;;;14.60;;
2055;SDS011;1033;52.560;13.374;2023-08-06T10:28:55;16.53;;;15.07;;
2055;SDS011;1033;52.560;13.374;2023-08-06T10:34:22;15.33;;;14.00;;
2055;SDS011;1033;52.560;13.374;2023-08-06T10:36:54;10.87;;;10.07;;
2055;SDS011;1033;52.560;13.374;2023-08-06T10:39:24;8.27;;;7.67;;
2055;SDS011;1033;52.560;13.374;2023-08-06T10:41:57;7.07;;;6.57;;
2055;SDS011;1033;52.560;13.374;2023-08-06T10:44:26;7.10;;;6.50;;
2055;SDS011;1033;52.560;13.374;2023-08-06T10:50:28;9.50;;;8.70;;
2055;SDS011;1033;52.560;13.374;2023-08-06T10:53:03;8.67;;;7.83;;
2055;SDS011;1033;52.560;13.374;2023-08-06T10:55:33;9.47;;;8.77;;
2055;SDS011;1033;52.560;13.374;2023-08-06T10:58:05;11.13;;;10.13;;
2055;SDS011;1033;52.560;13.374;2023-08-06T11:00:37;10.70;;;9.03;;
2055;SDS011;1033;52.560;13.374;2023-08-06T11:03:07;12.47;;;11.33;;
2055;SDS011;1033;52.560;13.374;2023-08-06T11:05:39;14.27;;;12.87;;
2055;SDS011;1033;52.560;13.374;2023-08-06T11:08:08;10.57;;;9.67;;
2055;SDS011;1033;52.560;13.374;2023-08-06T11:10:37;11.63;;;10.63;;
2055;SDS011;1033;52.560;13.374;2023-08-06T11:13:23;10.00;;;9.00;;
2055;SDS011;1033;52.560;13.374;2023-08-06T11:15:56;10.03;;;9.20;;
2055;SDS011;1033;52.560;13.374;2023-08-06T11:18:26;9.93;;;9.13;;
2055;SDS011;1033;52.560;13.374;2023-08-06T11:20:59;9.07;;;8.27;;
2055;SDS011;1033;52.560;13.374;2023-08-06T11:23:29;8.43;;;7.73;;
2055;SDS011;1033;52.560;13.374;2023-08-06T11:25:59;9.13;;;8.40;;
2055;SDS011;1033;52.560;13.374;2023-08-06T11:28:28;9.90;;;9.10;;
2055;SDS011;1033;52.560;13.374;2023-08-06T11:30:57;8.93;;;8.13;;
2055;SDS011;1033;52.560;13.374;2023-08-06T11:33:29;9.00;;;8.30;;
2055;SDS011;1033;52.560;13.374;2023-08-06T11:36:02;13.30;;;8.50;;
2055;SDS011;1033;52.560;13.374;2023-08-06T11:38:32;10.73;;;9.77;;
2055;SDS011;1033;52.560;13.374;2023-08-06T11:41:01;10.57;;;9.53;;
2055;SDS011;1033;52.560;13.374;2023-08-06T11:43:30;9.83;;;9.03;;
2055;SDS011;1033;52.560;13.374;2023-08-06T11:46:00;10.13;;;9.33;;
2055;SDS011;1033;52.560;13.374;2023-08-06T11:51:55;11.10;;;9.90;;
2055;SDS011;1033;52.560;13.374;2023-08-06T11:55:38;11.40;;;10.40;;
2055;SDS011;1033;52.560;13.374;2023-08-06T11:59:03;12.03;;;10.93;;
2055;SDS011;1033;52.560;13.374;2023-08-06T12:01:38;11.70;;;10.70;;
2055;SDS011;1033;52.560;13.374;2023-08-06T12:07:45;13.90;;;12.50;;
2055;SDS011;1033;52.560;13.374;2023-08-06T12:10:20;13.57;;;12.37;;
2055;SDS011;1033;52.560;13.374;2023-08-06T12:12:58;14.13;;;12.73;;
2055;SDS011;1033;52.560;13.374;2023-08-06T12:15:29;14.50;;;13.20;;
2055;SDS011;1033;52.560;13.374;2023-08-06T12:17:59;12.37;;;11.37;;
2055;SDS011;1033;52.560;13.374;2023-08-06T12:20:36;13.00;;;11.87;;
2055;SDS011;1033;52.560;13.374;2023-08-06T12:23:12;13.77;;;12.57;;
2055;SDS011;1033;52.560;13.374;2023-08-06T12:25:46;15.30;;;14.00;;
2055;SDS011;1033;52.560;13.374;2023-08-06T12:28:20;13.17;;;11.90;;
2055;SDS011;1033;52.560;13.374;2023-08-06T12:30:54;14.63;;;13.13;;
2055;SDS011;1033;52.560;13.374;2023-08-06T12:33:32;14.33;;;13.03;;
2055;SDS011;1033;52.560;13.374;2023-08-06T12:36:36;13.57;;;12.37;;
2055;SDS011;1033;52.560;13.374;2023-08-06T12:39:14;14.10;;;12.97;;
2055;SDS011;1033;52.560;13.374;2023-08-06T12:41:44;12.80;;;11.70;;
2055;SDS011;1033;52.560;13.374;2023-08-06T12:44:13;12.20;;;11.10;;
2055;SDS011;1033;52.560;13.374;2023-08-06T12:46:42;14.03;;;12.77;;
2055;SDS011;1033;52.560;13.374;2023-08-06T12:49:12;14.43;;;13.13;;
2055;SDS011;1033;52.560;13.374;2023-08-06T12:51:41;12.83;;;11.63;;
2055;SDS011;1033;52.560;13.374;2023-08-06T12:54:10;14.33;;;13.00;;
2055;SDS011;1033;52.560;13.374;2023-08-06T12:56:41;12.97;;;11.87;;
2055;SDS011;1033;52.560;13.374;2023-08-06T12:59:10;12.60;;;11.50;;
2055;SDS011;1033;52.560;13.374;2023-08-06T13:01:40;13.03;;;11.73;;
2055;SDS011;1033;52.560;13.374;2023-08-06T13:04:10;13.50;;;12.20;;
2055;SDS011;1033;52.560;13.374;2023-08-06T13:06:48;14.27;;;13.07;;
2055;SDS011;1033;52.560;13.374;2023-08-06T13:09:18;16.00;;;14.40;;
2055;SDS011;1033;52.560;13.374;2023-08-06T13:11:49;12.53;;;11.30;;
2055;SDS011;1033;52.560;13.374;2023-08-06T13:14:20;14.13;;;12.83;;
2055;SDS011;1033;52.560;13.374;2023-08-06T13:16:49;15.03;;;13.53;;
2055;SDS011;1033;52.560;13.374;2023-08-06T13:19:20;13.63;;;12.33;;
2055;SDS011;1033;52.560;13.374;2023-08-06T13:21:59;14.63;;;13.23;;
2055;SDS011;1033;52.560;13.374;2023-08-06T13:24:32;14.80;;;13.47;;
2055;SDS011;1033;52.560;13.374;2023-08-06T13:27:02;16.30;;;14.33;;
2055;SDS011;1033;52.560;13.374;2023-08-06T13:29:33;13.50;;;12.30;;
2055;SDS011;1033;52.560;13.374;2023-08-06T13:32:03;14.50;;;13.10;;
2055;SDS011;1033;52.560;13.374;2023-08-06T13:34:33;19.13;;;14.93;;
2055;SDS011;1033;52.560;13.374;2023-08-06T13:37:02;14.23;;;12.83;;
2055;SDS011;1033;52.560;13.374;2023-08-06T13:39:31;14.03;;;12.57;;
2055;SDS011;1033;52.560;13.374;2023-08-06T13:45:32;15.23;;;13.70;;
2055;SDS011;1033;52.560;13.374;2023-08-06T13:48:02;17.53;;;15.73;;
2055;SDS011;1033;52.560;13.374;2023-08-06T13:50:31;14.30;;;12.10;;
2055;SDS011;1033;52.560;13.374;2023-08-06T13:53:00;15.93;;;12.10;;
2055;SDS011;1033;52.560;13.374;2023-08-06T13:55:29;18.00;;;16.03;;
2055;SDS011;1033;52.560;13.374;2023-08-06T13:57:58;17.80;;;15.60;;
2055;SDS011;1033;52.560;13.374;2023-08-06T14:00:27;20.37;;;18.37;;
2055;SDS011;1033;52.560;13.374;2023-08-06T14:02:58;19.43;;;17.50;;
2055;SDS011;1033;52.560;13.374;2023-08-06T14:05:27;13.40;;;12.17;;
2055;SDS011;1033;52.560;13.374;2023-08-06T14:07:57;14.03;;;12.63;;
2055;SDS011;1033;52.560;13.374;2023-08-06T14:10:27;12.70;;;11.47;;
2055;SDS011;1033;52.560;13.374;2023-08-06T14:12:57;11.83;;;10.37;;
2055;SDS011;1033;52.560;13.374;2023-08-06T14:15:36;9.63;;;8.10;;
2055;SDS011;1033;52.560;13.374;2023-08-06T14:18:08;8.73;;;7.97;;
2055;SDS011;1033;52.560;13.374;2023-08-06T14:20:37;10.10;;;7.13;;
2055;SDS011;1033;52.560;13.374;2023-08-06T14:23:06;15.70;;;14.07;;
2055;SDS011;1033;52.560;13.374;2023-08-06T14:25:38;8.70;;;7.90;;
2055;SDS011;1033;52.560;13.374;2023-08-06T14:28:07;8.63;;;7.47;;
2055;SDS011;1033;52.560;13.374;2023-08-06T14:30:36;8.63;;;6.50;;
2055;SDS011;1033;52.560;13.374;2023-08-06T14:33:05;11.30;;;7.33;;
2055;SDS011;1033;52.560;13.374;2023-08-06T14:35:52;8.43;;;7.73;;
2055;SDS011;1033;52.560;13.374;2023-08-06T14:38:21;8.77;;;7.60;;
2055;SDS011;1033;52.560;13.374;2023-08-06T14:40:50;8.03;;;7.30;;
2055;SDS011;1033;52.560;13.374;2023-08-06T14:43:19;8.20;;;7.50;;
2055;SDS011;1033;52.560;13.374;2023-08-06T14:45:48;8.00;;;7.00;;
2055;SDS011;1033;52.560;13.374;2023-08-06T14:48:18;8.30;;;7.40;;
2055;SDS011;1033;52.560;13.374;2023-08-06T14:50:47;8.67;;;7.20;;
2055;SDS011;1033;52.560;13.374;2023-08-06T14:53:16;8.53;;;7.60;;
2055;SDS011;1033;52.560;13.374;2023-08-06T14:55:45;8.63;;;7.60;;
2055;SDS011;1033;52.560;13.374;2023-08-06T14:58:14;8.70;;;7.90;;
2055;SDS011;1033;52.560;13.374;2023-08-06T15:00:46;8.87;;;7.67;;
2055;SDS011;1033;52.560;13.374;2023-08-06T15:03:15;7.63;;;6.93;;
2055;SDS011;1033;52.560;13.374;2023-08-06T15:05:46;6.97;;;6.37;;
2055;SDS011;1033;52.560;13.374;2023-08-06T15:08:16;5.73;;;5.13;;
2055;SDS011;1033;52.560;13.374;2023-08-06T15:10:49;6.70;;;6.07;;
2055;SDS011;1033;52.560;13.374;2023-08-06T15:13:20;5.30;;;4.80;;
2055;SDS011;1033;52.560;13.374;2023-08-06T15:15:49;6.63;;;6.03;;
2055;SDS011;1033;52.560;13.374;2023-08-06T15:21:15;5.93;;;5.00;;
2055;SDS011;1033;52.560;13.374;2023-08-06T15:23:45;6.57;;;4.73;;
2055;SDS011;1033;52.560;13.374;2023-08-06T15:26:14;5.50;;;5.00;;
2055;SDS011;1033;52.560;13.374;2023-08-06T15:28:43;5.73;;;5.20;;
2055;SDS011;1033;52.560;13.374;2023-08-06T15:31:12;5.67;;;5.17;;
2055;SDS011;1033;52.560;13.374;2023-08-06T15:33:42;6.17;;;5.57;;
2055;SDS011;1033;52.560;13.374;2023-08-06T15:36:12;6.00;;;5.07;;
2055;SDS011;1033;52.560;13.374;2023-08-06T15:38:42;6.30;;;5.80;;
2055;SDS011;1033;52.560;13.374;2023-08-06T15:41:11;6.23;;;5.50;;
2055;SDS011;1033;52.560;13.374;2023-08-06T15:43:39;7.53;;;6.87;;
2055;SDS011;1033;52.560;13.374;2023-08-06T15:46:08;6.27;;;5.70;;
2055;SDS011;1033;52.560;13.374;2023-08-06T15:48:38;8.30;;;6.27;;
2055;SDS011;1033;52.560;13.374;2023-08-06T15:51:07;6.67;;;5.20;;
2055;SDS011;1033;52.560;13.374;2023-08-06T15:53:37;14.30;;;12.80;;
2055;SDS011;1033;52.560;13.374;2023-08-06T15:56:06;6.20;;;5.60;;
2055;SDS011;1033;52.560;13.374;2023-08-06T15:58:36;7.83;;;5.33;;
2055;SDS011;1033;52.560;13.374;2023-08-06T16:01:05;5.33;;;4.63;;
2055;SDS011;1033;52.560;13.374;2023-08-06T16:03:34;7.20;;;4.47;;
2055;SDS011;1033;52.560;13.374;2023-08-06T16:06:06;5.83;;;5.33;;
2055;SDS011;1033;52.560;13.374;2023-08-06T16:08:36;6.23;;;5.57;;
2055;SDS011;1033;52.560;13.374;2023-08-06T16:11:06;6.80;;;5.73;;
2055;SDS011;1033;52.560;13.374;2023-08-06T16:13:35;8.40;;;5.03;;
2055;SDS011;1033;52.560;13.374;2023-08-06T16:16:04;5.40;;;4.73;;
2055;SDS011;1033;52.560;13.374;2023-08-06T16:18:34;4.97;;;4.47;;
2055;SDS011;1033;52.560;13.374;2023-08-06T16:21:03;5.60;;;5.10;;
2055;SDS011;1033;52.560;13.374;2023-08-06T16:23:32;10.40;;;4.83;;
2055;SDS011;1033;52.560;13.374;2023-08-06T16:26:02;5.30;;;4.80;;
2055;SDS011;1033;52.560;13.374;2023-08-06T16:28:32;6.57;;;4.83;;
2055;SDS011;1033;52.560;13.374;2023-08-06T16:31:01;6.53;;;4.63;;
2055;SDS011;1033;52.560;13.374;2023-08-06T16:33:31;8.60;;;4.40;;
2055;SDS011;1033;52.560;13.374;2023-08-06T16:36:00;8.27;;;4.80;;